createdAt,value
2022-12-09T00:01:30.299Z,1.60
2022-12-09T00:03:35.581Z,1.60
2022-12-09T00:05:44.731Z,1.60
2022-12-09T00:07:49.697Z,1.60
2022-12-09T00:09:54.912Z,1.70
2022-12-09T00:12:00.308Z,1.70
2022-12-09T00:14:05.440Z,1.70
2022-12-09T00:16:12.755Z,1.70
2022-12-09T00:18:17.906Z,1.60
2022-12-09T00:20:22.890Z,1.60
2022-12-09T00:22:32.116Z,1.60
2022-12-09T00:24:37.026Z,1.60
2022-12-09T00:26:42.955Z,1.60
2022-12-09T00:28:48.920Z,1.60
2022-12-09T00:30:54.737Z,1.60
2022-12-09T00:32:59.798Z,1.60
2022-12-09T00:35:04.868Z,1.60
2022-12-09T00:37:10.057Z,1.50
2022-12-09T00:39:17.853Z,1.40
2022-12-09T00:41:23.164Z,1.40
2022-12-09T00:43:28.949Z,1.30
2022-12-09T00:45:34.511Z,1.40
2022-12-09T00:47:40.106Z,1.40
2022-12-09T00:49:46.906Z,1.40
2022-12-09T00:51:54.082Z,1.40
2022-12-09T00:54:00.204Z,1.50
2022-12-09T00:56:08.972Z,1.50
2022-12-09T00:58:14.458Z,1.50
2022-12-09T01:00:21.069Z,1.50
2022-12-09T01:02:26.271Z,1.50
2022-12-09T01:04:31.841Z,1.40
2022-12-09T01:06:37.191Z,1.50
2022-12-09T01:08:43.039Z,1.50
2022-12-09T01:10:49.100Z,1.50
2022-12-09T01:12:56.625Z,1.50
2022-12-09T01:15:01.693Z,1.50
2022-12-09T01:17:06.922Z,1.50
2022-12-09T01:19:16.170Z,1.50
2022-12-09T01:21:21.582Z,1.50
2022-12-09T01:23:27.297Z,1.50
2022-12-09T01:25:32.968Z,1.30
2022-12-09T01:27:38.627Z,1.20
2022-12-09T01:29:46.249Z,1.20
2022-12-09T01:31:51.704Z,1.20
2022-12-09T01:33:58.816Z,1.20
2022-12-09T01:36:06.781Z,1.30
2022-12-09T01:38:11.848Z,1.40
2022-12-09T01:40:20.372Z,1.40
2022-12-09T01:42:29.680Z,1.40
2022-12-09T01:44:37.015Z,1.50
2022-12-09T01:46:45.436Z,1.50
2022-12-09T01:48:50.519Z,1.50
2022-12-09T01:51:00.640Z,1.50
2022-12-09T01:53:06.004Z,1.50
2022-12-09T01:55:12.901Z,1.50
2022-12-09T01:57:18.583Z,1.40
2022-12-09T01:59:24.766Z,1.40
2022-12-09T02:01:30.144Z,1.40
2022-12-09T02:03:38.634Z,1.40
2022-12-09T02:05:44.742Z,1.50
2022-12-09T02:07:49.997Z,1.50
2022-12-09T02:09:56.096Z,1.50
2022-12-09T02:12:18.690Z,1.50
2022-12-09T02:14:31.042Z,1.50
2022-12-09T02:16:51.631Z,1.50
2022-12-09T02:19:12.576Z,1.50
2022-12-09T02:21:25.649Z,1.50
2022-12-09T02:23:41.353Z,1.50
2022-12-09T02:25:56.223Z,1.50
2022-12-09T02:28:30.180Z,1.50
2022-12-09T02:30:40.453Z,1.50
2022-12-09T02:33:37.296Z,1.50
2022-12-09T02:35:53.023Z,1.50
2022-12-09T02:38:08.458Z,1.50
2022-12-09T02:40:19.465Z,1.50
2022-12-09T02:42:28.661Z,1.50
2022-12-09T02:44:35.935Z,1.50
2022-12-09T02:46:43.468Z,1.50
2022-12-09T02:48:56.616Z,1.50
2022-12-09T02:51:08.916Z,1.50
2022-12-09T02:53:16.774Z,1.40
2022-12-09T02:55:25.593Z,1.30
2022-12-09T02:57:33.217Z,1.30
2022-12-09T02:59:39.538Z,1.40
2022-12-09T03:01:52.297Z,1.40
2022-12-09T03:03:58.165Z,1.40
2022-12-09T03:06:12.455Z,1.50
2022-12-09T03:08:29.740Z,1.40
2022-12-09T03:10:41.696Z,1.40
2022-12-09T03:12:53.555Z,1.40
2022-12-09T03:15:00.898Z,1.40
2022-12-09T03:17:14.967Z,1.40
2022-12-09T03:19:25.968Z,1.40
2022-12-09T03:21:37.736Z,1.40
2022-12-09T03:23:45.593Z,1.30
2022-12-09T03:25:55.511Z,1.30
2022-12-09T03:28:06.342Z,1.30
2022-12-09T03:30:14.134Z,1.40
2022-12-09T03:32:20.642Z,1.40
2022-12-09T03:34:30.398Z,1.40
2022-12-09T03:36:41.699Z,1.40
2022-12-09T03:38:51.023Z,1.40
2022-12-09T03:41:06.198Z,1.40
2022-12-09T03:43:17.482Z,1.40
2022-12-09T03:45:23.716Z,1.40
2022-12-09T03:47:30.394Z,1.40
2022-12-09T03:49:35.985Z,1.40
2022-12-09T03:51:49.165Z,1.40
2022-12-09T03:54:01.344Z,1.40
2022-12-09T03:56:15.351Z,1.40
2022-12-09T03:58:22.943Z,1.40
2022-12-09T04:00:28.781Z,1.40
2022-12-09T04:02:34.303Z,1.30
2022-12-09T04:04:43.591Z,1.30
2022-12-09T04:06:53.651Z,1.30
2022-12-09T04:09:02.420Z,1.30
2022-12-09T04:11:08.607Z,1.40
2022-12-09T04:13:13.704Z,1.30
2022-12-09T04:15:21.429Z,1.30
2022-12-09T04:17:26.624Z,1.40
2022-12-09T04:19:32.001Z,1.30
2022-12-09T04:21:38.589Z,1.30
2022-12-09T04:23:46.327Z,1.30
2022-12-09T04:25:51.799Z,1.20
2022-12-09T04:27:57.102Z,1.10
2022-12-09T04:30:02.382Z,1.20
2022-12-09T04:32:08.600Z,1.20
2022-12-09T04:34:13.962Z,1.20
2022-12-09T04:36:21.822Z,1.20
2022-12-09T04:38:28.916Z,1.20
2022-12-09T04:40:36.811Z,1.20
2022-12-09T04:42:41.815Z,1.10
2022-12-09T04:44:47.192Z,1.20
2022-12-09T04:46:54.182Z,1.20
2022-12-09T04:48:59.315Z,1.10
2022-12-09T04:51:04.404Z,1.20
2022-12-09T04:53:09.732Z,1.20
2022-12-09T04:55:16.126Z,1.20
2022-12-09T04:57:27.189Z,1.20
2022-12-09T04:59:34.291Z,1.10
2022-12-09T05:01:39.900Z,1.10
2022-12-09T05:03:47.072Z,1.10
2022-12-09T05:05:52.657Z,1.20
2022-12-09T05:07:57.961Z,1.10
2022-12-09T05:10:03.341Z,1.10
2022-12-09T05:12:09.916Z,1.20
2022-12-09T05:14:18.040Z,1.10
2022-12-09T05:16:27.211Z,1.20
2022-12-09T05:18:32.873Z,1.20
2022-12-09T05:20:41.413Z,1.20
2022-12-09T05:22:46.748Z,1.20
2022-12-09T05:24:52.032Z,1.20
2022-12-09T05:26:57.157Z,1.20
2022-12-09T05:29:02.431Z,1.20
2022-12-09T05:31:13.362Z,1.20
2022-12-09T05:33:19.115Z,1.20
2022-12-09T05:35:24.694Z,1.20
2022-12-09T05:37:32.863Z,1.20
2022-12-09T05:39:38.068Z,1.20
2022-12-09T05:41:43.416Z,1.20
2022-12-09T05:43:49.502Z,1.20
2022-12-09T05:45:55.097Z,1.10
2022-12-09T05:48:02.962Z,1.20
2022-12-09T05:50:10.880Z,1.20
2022-12-09T05:52:16.883Z,1.20
2022-12-09T05:54:22.366Z,1.20
2022-12-09T05:56:28.258Z,1.20
2022-12-09T05:58:34.207Z,1.10
2022-12-09T06:00:41.890Z,1.20
2022-12-09T06:02:47.095Z,1.10
2022-12-09T06:04:56.113Z,1.20
2022-12-09T06:07:01.446Z,1.10
2022-12-09T06:09:11.544Z,1.10
2022-12-09T06:11:19.711Z,1.10
2022-12-09T06:13:25.194Z,1.10
2022-12-09T06:15:33.401Z,1.10
2022-12-09T06:17:38.952Z,1.10
2022-12-09T06:19:44.638Z,1.10
2022-12-09T06:21:53.300Z,1.00
2022-12-09T06:23:58.546Z,1.00
2022-12-09T06:26:03.585Z,1.00
2022-12-09T06:28:08.855Z,1.00
2022-12-09T06:30:14.405Z,1.00
2022-12-09T06:32:19.601Z,0.90
2022-12-09T06:34:25.438Z,0.90
2022-12-09T06:36:33.868Z,0.90
2022-12-09T06:38:42.077Z,1.00
2022-12-09T06:40:48.569Z,1.00
2022-12-09T06:42:56.035Z,1.00
2022-12-09T06:45:01.243Z,1.00
2022-12-09T06:47:06.862Z,0.90
2022-12-09T06:49:12.777Z,0.90
2022-12-09T06:51:19.745Z,0.90
2022-12-09T06:53:24.818Z,0.90
2022-12-09T06:55:32.506Z,0.90
2022-12-09T06:57:37.599Z,1.00
2022-12-09T06:59:42.990Z,1.00
2022-12-09T07:01:48.968Z,1.00
2022-12-09T07:03:57.160Z,1.00
2022-12-09T07:06:03.591Z,1.00
2022-12-09T07:08:12.812Z,1.00
2022-12-09T07:10:18.469Z,1.00
2022-12-09T07:12:26.589Z,1.00
2022-12-09T07:14:31.972Z,0.90
2022-12-09T07:16:37.677Z,1.00
2022-12-09T07:18:43.123Z,1.00
2022-12-09T07:20:48.888Z,1.00
2022-12-09T07:22:54.375Z,1.00
2022-12-09T07:25:00.304Z,1.00
2022-12-09T07:27:13.010Z,1.00
2022-12-09T07:29:23.554Z,1.00
2022-12-09T07:31:31.203Z,1.00
2022-12-09T07:33:36.585Z,0.90
2022-12-09T07:35:41.689Z,1.00
2022-12-09T07:37:46.945Z,0.90
2022-12-09T07:39:52.143Z,0.90
2022-12-09T07:41:59.674Z,0.90
2022-12-09T07:44:08.654Z,1.00
2022-12-09T07:46:18.229Z,0.90
2022-12-09T07:48:23.884Z,0.90
2022-12-09T07:50:29.147Z,0.90
2022-12-09T07:52:35.696Z,0.90
2022-12-09T07:54:41.385Z,0.90
2022-12-09T07:56:47.030Z,0.90
2022-12-09T07:58:54.576Z,0.90
2022-12-09T08:01:01.075Z,0.90
2022-12-09T08:03:08.837Z,0.90
2022-12-09T08:05:14.661Z,0.80
2022-12-09T08:07:20.387Z,0.90
2022-12-09T08:09:26.308Z,0.90
2022-12-09T08:11:35.281Z,0.80
2022-12-09T08:13:42.438Z,0.80
2022-12-09T08:15:47.593Z,0.70
2022-12-09T08:17:53.005Z,0.60
2022-12-09T08:20:01.131Z,0.70
2022-12-09T08:22:06.923Z,0.70
2022-12-09T08:24:15.272Z,0.70
2022-12-09T08:26:23.135Z,0.70
2022-12-09T08:28:29.287Z,0.80
2022-12-09T08:30:35.043Z,0.90
2022-12-09T08:32:40.297Z,0.90
2022-12-09T08:34:47.351Z,0.90
2022-12-09T08:37:01.584Z,0.90
2022-12-09T08:39:08.672Z,0.90
2022-12-09T08:41:16.998Z,0.90
2022-12-09T08:43:22.732Z,0.80
2022-12-09T08:45:28.245Z,0.90
2022-12-09T08:47:34.700Z,0.80
2022-12-09T08:49:42.980Z,0.80
2022-12-09T08:51:49.513Z,0.70
2022-12-09T08:53:57.959Z,0.70
2022-12-09T08:56:10.232Z,0.80
2022-12-09T08:58:15.843Z,0.80
2022-12-09T09:00:22.447Z,0.80
2022-12-09T09:02:28.076Z,0.80
2022-12-09T09:04:34.875Z,0.90
2022-12-09T09:06:43.508Z,0.80
2022-12-09T09:08:49.211Z,0.90
2022-12-09T09:10:57.739Z,0.90
2022-12-09T09:13:02.914Z,0.90
2022-12-09T09:15:10.386Z,0.90
2022-12-09T09:17:16.897Z,0.90
2022-12-09T09:19:26.755Z,0.90
2022-12-09T09:21:32.474Z,0.90
2022-12-09T09:23:38.143Z,1.00
2022-12-09T09:25:47.711Z,0.90
2022-12-09T09:27:55.420Z,0.90
2022-12-09T09:30:00.794Z,0.80
2022-12-09T09:32:09.292Z,0.80
2022-12-09T09:34:17.277Z,0.70
2022-12-09T09:36:27.247Z,0.80
2022-12-09T09:38:33.375Z,0.80
2022-12-09T09:40:43.098Z,0.70
2022-12-09T09:42:56.246Z,0.70
2022-12-09T09:45:01.937Z,0.80
2022-12-09T09:47:18.836Z,0.60
2022-12-09T09:49:36.488Z,0.40
2022-12-09T09:51:42.749Z,0.40
2022-12-09T09:53:51.462Z,0.40
2022-12-09T09:56:02.051Z,0.40
2022-12-09T09:58:20.614Z,0.40
2022-12-09T10:00:31.268Z,0.50
2022-12-09T10:03:02.290Z,0.60
2022-12-09T10:05:17.504Z,0.50
2022-12-09T10:07:29.144Z,0.60
2022-12-09T10:09:45.323Z,0.60
2022-12-09T10:12:01.946Z,0.50
2022-12-09T10:14:20.387Z,0.50
2022-12-09T10:16:33.081Z,0.60
2022-12-09T10:18:46.422Z,0.50
2022-12-09T10:20:52.107Z,0.40
2022-12-09T10:23:04.893Z,0.40
2022-12-09T10:25:22.981Z,0.30
2022-12-09T10:27:34.217Z,0.40
2022-12-09T10:30:04.841Z,0.50
2022-12-09T10:32:18.245Z,0.60
2022-12-09T10:34:24.820Z,0.60
2022-12-09T10:36:35.991Z,0.60
2022-12-09T10:38:44.680Z,0.60
2022-12-09T10:43:38.822Z,0.50
2022-12-09T10:46:17.352Z,0.50
2022-12-09T10:48:34.133Z,0.60
2022-12-09T10:50:40.433Z,0.60
2022-12-09T10:52:49.390Z,0.50
2022-12-09T10:54:54.591Z,0.50
2022-12-09T10:57:25.950Z,0.30
2022-12-09T10:59:34.071Z,0.40
2022-12-09T11:01:56.728Z,0.50
2022-12-09T11:04:02.392Z,0.50
2022-12-09T11:06:28.533Z,0.50
2022-12-09T11:08:34.618Z,0.50
2022-12-09T11:10:41.454Z,0.40
2022-12-09T11:12:47.336Z,0.40
2022-12-09T11:14:56.219Z,0.50
2022-12-09T11:17:17.857Z,0.70
2022-12-09T11:19:35.128Z,0.70
2022-12-09T11:21:40.392Z,0.80
2022-12-09T11:24:02.902Z,0.80
2022-12-09T11:26:25.907Z,0.80
2022-12-09T11:28:33.628Z,0.80
2022-12-09T11:30:57.565Z,0.80
2022-12-09T11:33:28.184Z,0.70
2022-12-09T11:35:41.037Z,0.80
2022-12-09T11:37:47.054Z,0.80
2022-12-09T11:39:53.602Z,0.80
2022-12-09T11:42:17.158Z,0.80
2022-12-09T11:44:32.034Z,0.70
2022-12-09T11:46:40.334Z,0.80
2022-12-09T11:48:56.660Z,0.80
2022-12-09T11:51:03.097Z,0.80
2022-12-09T11:53:31.049Z,0.80
2022-12-09T11:55:36.543Z,0.80
2022-12-09T11:57:50.534Z,0.80
2022-12-09T12:00:04.610Z,0.80
2022-12-09T12:02:21.500Z,0.80
2022-12-09T12:04:53.682Z,0.80
2022-12-09T12:07:04.404Z,0.80
2022-12-09T12:09:18.144Z,0.80
2022-12-09T12:11:32.138Z,0.90
2022-12-09T12:13:43.225Z,0.90
2022-12-09T12:15:58.203Z,0.90
2022-12-09T12:18:06.888Z,0.90
2022-12-09T12:20:16.905Z,0.90
2022-12-09T12:23:23.043Z,0.90
2022-12-09T12:25:43.372Z,0.90
2022-12-09T12:28:07.927Z,0.90
2022-12-09T12:30:18.527Z,1.00
2022-12-09T12:35:58.829Z,1.20
2022-12-09T12:38:18.506Z,1.30
2022-12-09T12:40:39.001Z,1.30
2022-12-09T12:43:15.472Z,1.40
2022-12-09T12:45:54.943Z,1.50
2022-12-09T12:48:07.086Z,1.60
2022-12-09T12:50:43.621Z,1.60
2022-12-09T12:52:56.625Z,1.80
2022-12-09T12:55:22.756Z,1.70
2022-12-09T12:57:38.156Z,1.70
2022-12-09T12:59:52.528Z,1.80
2022-12-09T13:02:05.137Z,1.80
2022-12-09T13:04:25.250Z,1.70
2022-12-09T13:06:43.564Z,1.90
2022-12-09T13:09:02.709Z,2.00
2022-12-09T13:11:14.327Z,2.10
2022-12-09T13:13:26.170Z,2.20
2022-12-09T13:15:42.389Z,2.20
2022-12-09T13:17:50.706Z,2.10
2022-12-09T13:20:03.805Z,2.10
2022-12-09T13:22:21.512Z,2.10
2022-12-09T13:24:37.793Z,2.10
2022-12-09T13:26:52.299Z,2.00
2022-12-09T13:29:07.899Z,1.90
2022-12-09T13:31:14.515Z,1.90
2022-12-09T13:33:36.604Z,1.90
2022-12-09T13:35:46.836Z,1.80
2022-12-09T13:38:03.183Z,1.80
2022-12-09T13:40:35.265Z,1.90
2022-12-09T13:42:56.578Z,1.80
2022-12-09T13:45:17.282Z,1.80
2022-12-09T13:47:37.851Z,1.80
2022-12-09T13:49:43.677Z,1.80
2022-12-09T13:51:51.976Z,1.80
2022-12-09T13:54:08.306Z,1.70
2022-12-09T13:56:29.278Z,1.60
2022-12-09T13:59:13.111Z,1.60
2022-12-09T14:01:25.585Z,1.50
2022-12-09T14:03:35.499Z,1.50
2022-12-09T14:05:41.373Z,1.50
2022-12-09T14:07:52.739Z,1.50
2022-12-09T14:10:01.825Z,1.50
2022-12-09T14:12:10.116Z,1.50
2022-12-09T14:15:01.468Z,1.40
2022-12-09T14:18:01.805Z,1.40
2022-12-09T14:20:22.193Z,1.30
2022-12-09T14:22:41.029Z,1.30
2022-12-09T14:24:49.482Z,1.30
2022-12-09T14:27:20.713Z,1.30
2022-12-09T14:29:48.730Z,1.20
2022-12-09T14:32:06.352Z,1.00
2022-12-09T14:34:45.337Z,1.00
2022-12-09T14:36:57.774Z,1.00
2022-12-09T14:39:24.089Z,1.00
2022-12-09T14:41:36.003Z,1.00
2022-12-09T14:44:11.047Z,0.90
2022-12-09T14:46:28.295Z,0.80
2022-12-09T14:48:37.625Z,0.80
2022-12-09T14:50:42.829Z,0.80
2022-12-09T14:52:57.637Z,0.70
2022-12-09T14:55:08.270Z,0.70
2022-12-09T14:57:24.238Z,0.70
2022-12-09T14:59:34.262Z,0.60
2022-12-09T15:02:00.323Z,0.60
2022-12-09T15:04:05.863Z,0.60
2022-12-09T15:06:20.691Z,0.50
2022-12-09T15:08:37.740Z,0.50
2022-12-09T15:10:42.866Z,0.50
2022-12-09T15:12:51.549Z,0.50
2022-12-09T15:15:05.582Z,0.50
2022-12-09T15:17:11.872Z,0.40
2022-12-09T15:19:57.992Z,0.40
2022-12-09T15:21:51.230Z,0.50
2022-12-09T15:23:56.691Z,0.50
2022-12-09T15:26:04.001Z,0.40
2022-12-09T15:28:21.452Z,0.40
2022-12-09T15:30:37.187Z,0.40
2022-12-09T15:32:42.652Z,0.40
2022-12-09T15:34:47.656Z,0.40
2022-12-09T15:36:56.544Z,0.30
2022-12-09T15:39:05.534Z,0.30
2022-12-09T15:41:25.200Z,0.30
2022-12-09T15:43:31.519Z,0.20
2022-12-09T15:45:41.942Z,0.20
2022-12-09T15:47:52.325Z,0.20
2022-12-09T15:50:08.667Z,0.10
2022-12-09T15:52:16.807Z,0.10
2022-12-09T15:54:28.605Z,0.10
2022-12-09T15:56:39.830Z,0.10
2022-12-09T15:58:50.826Z,0.00
2022-12-09T16:00:59.913Z,0.00
2022-12-09T16:03:04.991Z,0.00
2022-12-09T16:05:13.060Z,-0.10
2022-12-09T16:07:22.895Z,-0.20
2022-12-09T16:09:28.174Z,-0.20
2022-12-09T16:11:43.021Z,-0.20
2022-12-09T16:14:01.241Z,-0.30
2022-12-09T16:16:32.783Z,-0.30
2022-12-09T16:18:51.308Z,-0.30
2022-12-09T16:21:24.323Z,-0.30
2022-12-09T16:23:31.062Z,-0.30
2022-12-09T16:25:43.548Z,-0.30
2022-12-09T16:27:53.243Z,-0.40
2022-12-09T16:30:04.160Z,-0.40
2022-12-09T16:32:30.347Z,-0.40
2022-12-09T16:34:35.516Z,-0.40
2022-12-09T16:36:57.208Z,-0.50
2022-12-09T16:39:38.530Z,-0.50
2022-12-09T16:42:03.154Z,-0.50
2022-12-09T16:44:23.460Z,-0.60
2022-12-09T16:46:43.842Z,-0.60
2022-12-09T16:48:52.062Z,-0.70
2022-12-09T16:51:00.976Z,-0.70
2022-12-09T16:53:09.616Z,-0.60
2022-12-09T16:55:30.568Z,-0.70
2022-12-09T16:57:35.770Z,-0.70
2022-12-09T16:59:40.927Z,-0.70
2022-12-09T17:01:45.982Z,-0.70
2022-12-09T17:03:58.881Z,-0.70
2022-12-09T17:06:04.848Z,-0.70
2022-12-09T17:08:10.078Z,-0.70
2022-12-09T17:10:17.460Z,-0.80
2022-12-09T17:12:22.447Z,-0.80
2022-12-09T17:14:27.450Z,-0.80
2022-12-09T17:16:33.910Z,-0.70
2022-12-09T17:18:43.031Z,-0.80
2022-12-09T17:20:50.555Z,-0.80
2022-12-09T17:22:55.646Z,-0.80
2022-12-09T17:25:00.614Z,-0.90
2022-12-09T17:27:05.957Z,-0.90
2022-12-09T17:29:10.974Z,-0.90
2022-12-09T17:31:18.773Z,-0.90
2022-12-09T17:33:26.050Z,-0.90
2022-12-09T17:35:33.848Z,-1.10
2022-12-09T17:37:41.399Z,-1.10
2022-12-09T17:39:51.174Z,-1.10
2022-12-09T17:41:58.785Z,-1.00
2022-12-09T17:44:03.802Z,-1.00
2022-12-09T17:46:09.883Z,-0.90
2022-12-09T17:48:14.975Z,-0.90
2022-12-09T17:50:20.337Z,-0.80
2022-12-09T17:52:25.319Z,-0.90
2022-12-09T17:54:32.932Z,-0.90
2022-12-09T17:56:38.312Z,-0.80
2022-12-09T17:58:43.846Z,-0.90
2022-12-09T18:00:49.024Z,-1.10
2022-12-09T18:02:54.107Z,-1.20
2022-12-09T18:04:59.103Z,-1.10
2022-12-09T18:07:04.149Z,-1.00
2022-12-09T18:09:13.256Z,-1.10
2022-12-09T18:11:21.939Z,-1.10
2022-12-09T18:13:28.549Z,-1.10
2022-12-09T18:15:33.526Z,-1.00
2022-12-09T18:17:38.490Z,-1.10
2022-12-09T18:19:43.698Z,-1.10
2022-12-09T18:21:48.679Z,-1.00
2022-12-09T18:23:54.349Z,-1.00
2022-12-09T18:26:00.298Z,-0.90
2022-12-09T18:28:08.845Z,-0.80
2022-12-09T18:30:16.679Z,-0.80
2022-12-09T18:32:22.029Z,-0.70
2022-12-09T18:34:29.022Z,-0.80
2022-12-09T18:36:34.355Z,-0.70
2022-12-09T18:38:39.499Z,-0.80
2022-12-09T18:41:01.348Z,-0.70
2022-12-09T18:43:08.935Z,-0.80
2022-12-09T18:45:15.645Z,-0.70
2022-12-09T18:47:20.727Z,-0.80
2022-12-09T18:49:28.504Z,-0.90
2022-12-09T18:51:34.126Z,-0.80
2022-12-09T18:53:39.408Z,-0.70
2022-12-09T18:55:45.260Z,-0.70
2022-12-09T18:57:50.238Z,-0.70
2022-12-09T18:59:58.154Z,-0.60
2022-12-09T19:02:03.227Z,-0.60
2022-12-09T19:04:11.302Z,-0.60
2022-12-09T19:06:25.310Z,-0.60
2022-12-09T19:08:31.257Z,-0.60
2022-12-09T19:10:36.993Z,-0.50
2022-12-09T19:12:55.145Z,-0.50
2022-12-09T19:15:04.174Z,-0.50
2022-12-09T19:17:10.570Z,-0.50
2022-12-09T19:19:17.962Z,-0.50
2022-12-09T19:21:25.618Z,-0.50
2022-12-09T19:23:30.591Z,-0.50
2022-12-09T19:25:35.569Z,-0.50
2022-12-09T19:27:40.735Z,-0.50
2022-12-09T19:29:45.747Z,-0.50
2022-12-09T19:31:57.154Z,-0.60
2022-12-09T19:34:05.157Z,-0.50
2022-12-09T19:36:11.733Z,-0.50
2022-12-09T19:38:18.995Z,-0.50
2022-12-09T19:40:23.959Z,-0.40
2022-12-09T19:42:28.977Z,-0.40
2022-12-09T19:47:01.688Z,-0.40
2022-12-09T19:49:06.826Z,-0.70
2022-12-09T19:51:15.455Z,-0.70
2022-12-09T19:53:20.437Z,-0.70
2022-12-09T19:55:25.406Z,-0.70
2022-12-09T19:57:30.373Z,-0.60
2022-12-09T19:59:35.927Z,-0.60
2022-12-09T20:01:44.056Z,-0.50
2022-12-09T20:03:57.670Z,-0.50
2022-12-09T20:06:02.906Z,-0.50
2022-12-09T20:08:08.322Z,-0.40
2022-12-09T20:10:13.619Z,-0.40
2022-12-09T20:12:18.856Z,-0.40
2022-12-09T20:14:24.195Z,-0.40
2022-12-09T20:16:29.862Z,-0.40
2022-12-09T20:18:37.039Z,-0.40
2022-12-09T20:20:49.051Z,-0.40
2022-12-09T20:22:54.707Z,-0.30
2022-12-09T20:24:59.723Z,-0.30
2022-12-09T20:27:05.651Z,-0.30
2022-12-09T20:29:13.878Z,-0.30
2022-12-09T20:31:22.041Z,-0.50
2022-12-09T20:33:27.185Z,-0.50
2022-12-09T20:35:32.409Z,-0.50
2022-12-09T20:37:40.663Z,-0.40
2022-12-09T20:39:45.684Z,-0.50
2022-12-09T20:41:53.094Z,-0.50
2022-12-09T20:44:02.602Z,-0.40
2022-12-09T20:46:09.942Z,-0.30
2022-12-09T20:48:19.565Z,-0.30
2022-12-09T20:50:24.616Z,-0.30
2022-12-09T20:52:29.596Z,-0.30
2022-12-09T20:54:37.194Z,-0.30
2022-12-09T20:56:42.426Z,-0.20
2022-12-09T20:58:51.033Z,-0.30
2022-12-09T21:00:57.807Z,-0.40
2022-12-09T21:03:02.846Z,-0.50
2022-12-09T21:05:10.177Z,-0.50
2022-12-09T21:07:17.016Z,-0.50
2022-12-09T21:09:27.109Z,-0.40
2022-12-09T21:11:35.150Z,-0.40
2022-12-09T21:13:41.659Z,-0.30
2022-12-09T21:15:46.675Z,-0.30
2022-12-09T21:17:51.676Z,-0.30
2022-12-09T21:19:56.886Z,-0.30
2022-12-09T21:22:02.392Z,-0.30
2022-12-09T21:24:08.660Z,-0.30
2022-12-09T21:26:16.886Z,-0.20
2022-12-09T21:28:24.862Z,-0.20
2022-12-09T21:30:29.664Z,-0.20
2022-12-09T21:32:34.681Z,-0.20
2022-12-09T21:34:40.164Z,-0.20
2022-12-09T21:36:48.222Z,-0.20
2022-12-09T21:38:54.121Z,-0.20
2022-12-09T21:40:59.144Z,-0.20
2022-12-09T21:43:04.120Z,-0.20
2022-12-09T21:45:12.879Z,-0.30
2022-12-09T21:47:17.831Z,-0.30
2022-12-09T21:49:22.928Z,-0.30
2022-12-09T21:51:29.417Z,-0.20
2022-12-09T21:53:35.981Z,-0.20
2022-12-09T21:55:40.977Z,-0.20
2022-12-09T21:57:46.057Z,-0.20
2022-12-09T21:59:51.048Z,-0.20
2022-12-09T22:01:58.701Z,-0.20
2022-12-09T22:04:11.767Z,-0.20
2022-12-09T22:06:18.202Z,-0.20
2022-12-09T22:08:23.188Z,-0.20
2022-12-09T22:10:28.997Z,-0.10
2022-12-09T22:12:34.154Z,-0.10
2022-12-09T22:14:39.834Z,-0.10
2022-12-09T22:16:47.728Z,-0.10
2022-12-09T22:18:56.606Z,-0.10
2022-12-09T22:21:25.256Z,-0.10
2022-12-09T22:23:30.856Z,-0.10
2022-12-09T22:25:35.837Z,-0.20
2022-12-09T22:27:41.394Z,-0.30
2022-12-09T22:29:46.637Z,-0.30
2022-12-09T22:31:56.100Z,-0.30
2022-12-09T22:34:08.468Z,-0.20
2022-12-09T22:36:15.364Z,-0.20
2022-12-09T22:38:21.443Z,-0.20
2022-12-09T22:40:26.643Z,-0.20
2022-12-09T22:42:32.573Z,-0.20
2022-12-09T22:44:37.561Z,-0.20
2022-12-09T22:46:42.748Z,-0.10
2022-12-09T22:48:48.348Z,-0.10
2022-12-09T22:50:55.898Z,-0.10
2022-12-09T22:53:00.867Z,-0.10
2022-12-09T22:55:06.379Z,-0.10
2022-12-09T22:57:11.675Z,0.00
2022-12-09T22:59:17.606Z,0.00
2022-12-09T23:01:26.499Z,0.00
2022-12-09T23:03:31.688Z,0.00
2022-12-09T23:05:39.620Z,0.00
2022-12-09T23:07:47.335Z,0.00
2022-12-09T23:09:52.461Z,0.00
2022-12-09T23:11:58.825Z,0.00
2022-12-09T23:14:04.410Z,0.00
2022-12-09T23:16:12.468Z,0.00
2022-12-09T23:18:17.648Z,0.00
2022-12-09T23:20:22.973Z,0.00
2022-12-09T23:22:28.281Z,0.00
2022-12-09T23:24:35.867Z,0.00
2022-12-09T23:26:43.064Z,0.00
2022-12-09T23:28:52.361Z,0.10
2022-12-09T23:30:57.407Z,0.10
2022-12-09T23:33:02.424Z,0.10
2022-12-09T23:35:08.699Z,0.10
2022-12-09T23:37:15.399Z,0.10
2022-12-09T23:39:21.776Z,0.00
2022-12-09T23:41:30.413Z,0.00
2022-12-09T23:43:36.847Z,0.00
2022-12-09T23:45:42.245Z,0.00
2022-12-09T23:47:47.238Z,0.00
2022-12-09T23:49:52.522Z,0.10
2022-12-09T23:51:57.783Z,0.10
2022-12-09T23:54:08.174Z,0.10
2022-12-09T23:56:15.483Z,0.20
2022-12-09T23:58:23.811Z,0.20
